Time;durP1;ratioP1;P1;durP2;ratioP2;P2;SDS_P1;SDS_P2;PMS_P1;PMS_P2;Temp;Humidity;BMP_temperature;BMP_pressure;BME280_temperature;BME280_humidity;BME280_pressure;Samples;Min_cycle;Max_cycle;Signal;HPM_P1;HPM_P2
2021/06/22 00:01:24;;;;;;;13.13;5.10;;;13.00;99.90;;;;;;5109139;27;20223;-53
2021/06/22 00:03:51;;;;;;;9.30;5.17;;;13.00;99.90;;;;;;5125870;27;20193;-48
2021/06/22 00:06:19;;;;;;;8.30;5.07;;;13.00;99.90;;;;;;5126206;27;20184;-52
2021/06/22 00:08:45;;;;;;;10.47;4.83;;;13.00;99.90;;;;;;5117655;27;20180;-46
2021/06/22 00:11:12;;;;;;;14.00;5.20;;;12.90;99.90;;;;;;5126841;27;20216;-46
2021/06/22 00:13:39;;;;;;;10.00;5.03;;;12.90;99.90;;;;;;5117400;27;20930;-46
2021/06/22 00:16:05;;;;;;;16.60;5.00;;;13.00;99.90;;;;;;5104424;27;20216;-46
2021/06/22 00:18:32;;;;;;;6.03;5.07;;;13.00;99.90;;;;;;5122769;27;20185;-52
2021/06/22 00:20:59;;;;;;;9.73;5.27;;;13.00;99.90;;;;;;5125816;27;20189;-46
2021/06/22 00:23:27;;;;;;;9.30;5.43;;;13.00;99.90;;;;;;5123034;27;20220;-50
2021/06/22 00:25:53;;;;;;;12.70;5.60;;;13.00;99.90;;;;;;5125330;27;20181;-45
2021/06/22 00:28:20;;;;;;;13.93;5.20;;;12.90;99.90;;;;;;5124885;27;20191;-50
2021/06/22 00:30:46;;;;;;;9.67;5.00;;;12.90;99.90;;;;;;5106242;27;20220;-49
2021/06/22 00:33:13;;;;;;;10.37;5.10;;;12.90;99.90;;;;;;5124827;27;20235;-48
2021/06/22 00:35:40;;;;;;;6.47;4.50;;;12.90;99.90;;;;;;5122384;27;20181;-46
2021/06/22 00:38:07;;;;;;;5.60;4.47;;;12.90;99.90;;;;;;5126528;27;20219;-50
2021/06/22 00:40:35;;;;;;;9.00;3.90;;;12.90;99.90;;;;;;5121659;27;20181;-47
2021/06/22 00:43:01;;;;;;;6.63;4.43;;;12.90;99.90;;;;;;5126230;27;20315;-51
2021/06/22 00:45:29;;;;;;;10.23;4.73;;;13.00;99.90;;;;;;5113142;27;20193;-54
2021/06/22 00:48:00;;;;;;;8.67;4.93;;;12.90;99.90;;;;;;5110724;27;20269;-47
2021/06/22 00:50:27;;;;;;;7.57;4.60;;;13.00;99.90;;;;;;5114086;27;20271;-51
2021/06/22 00:52:59;;;;;;;13.47;5.10;;;12.90;99.90;;;;;;5124279;27;20786;-50
2021/06/22 00:55:32;;;;;;;11.73;4.07;;;12.90;99.90;;;;;;5122530;27;20204;-49
2021/06/22 00:58:03;;;;;;;9.67;5.10;;;12.90;99.90;;;;;;5125870;27;20197;-47
2021/06/22 01:00:30;;;;;;;9.43;4.90;;;13.00;99.90;;;;;;5121755;27;20189;-51
2021/06/22 01:02:59;;;;;;;9.37;4.77;;;13.00;99.90;;;;;;5105297;27;20220;-46
2021/06/22 01:05:30;;;;;;;11.37;5.30;;;13.00;99.90;;;;;;5113014;27;20192;-52
2021/06/22 01:08:01;;;;;;;12.93;5.60;;;13.00;99.90;;;;;;5122023;27;20246;-49
2021/06/22 01:10:30;;;;;;;9.77;4.47;;;13.00;99.90;;;;;;5119756;27;20200;-52
2021/06/22 01:12:58;;;;;;;10.23;5.00;;;13.00;99.90;;;;;;5124184;27;20693;-46
2021/06/22 01:15:30;;;;;;;9.00;5.60;;;13.00;99.90;;;;;;5112066;27;20196;-53
2021/06/22 01:18:05;;;;;;;8.93;5.00;;;13.00;99.90;;;;;;5110346;27;20579;-45
2021/06/22 01:20:45;;;;;;;14.07;5.63;;;13.00;99.90;;;;;;5120554;27;20192;-45
2021/06/22 01:23:13;;;;;;;13.17;5.90;;;13.00;99.90;;;;;;5124409;27;20353;-49
2021/06/22 01:25:41;;;;;;;11.80;5.80;;;12.90;99.90;;;;;;5120426;27;20199;-46
2021/06/22 01:28:08;;;;;;;9.93;5.37;;;12.90;99.90;;;;;;5117754;27;20269;-53
2021/06/22 01:30:40;;;;;;;12.50;5.20;;;12.90;99.90;;;;;;5113419;27;20716;-50
2021/06/22 01:33:07;;;;;;;10.67;5.60;;;12.90;99.90;;;;;;5114989;27;20220;-48
2021/06/22 01:35:34;;;;;;;7.60;6.53;;;13.00;99.90;;;;;;5114678;27;20927;-49
2021/06/22 01:38:05;;;;;;;9.00;5.50;;;13.00;99.90;;;;;;5122597;27;20400;-53
2021/06/22 01:40:44;;;;;;;9.50;5.00;;;13.00;99.90;;;;;;5122541;27;20201;-48
2021/06/22 01:43:11;;;;;;;9.90;5.00;;;13.00;99.90;;;;;;5118094;27;20212;-50
2021/06/22 01:45:41;;;;;;;9.67;5.60;;;12.90;99.90;;;;;;5119379;28;20291;-48
2021/06/22 01:48:08;;;;;;;10.57;5.17;;;12.90;99.90;;;;;;5113203;28;20275;-49
2021/06/22 01:50:39;;;;;;;14.03;5.13;;;12.90;99.90;;;;;;5117698;28;20197;-49
2021/06/22 01:53:06;;;;;;;12.07;5.10;;;12.90;99.90;;;;;;5121484;28;20307;-49
2021/06/22 01:55:37;;;;;;;10.57;5.23;;;12.90;99.90;;;;;;5122349;28;20259;-46
2021/06/22 01:58:07;;;;;;;9.87;5.17;;;12.90;99.90;;;;;;5121952;28;20192;-52
2021/06/22 02:00:54;;;;;;;8.33;4.97;;;12.90;99.90;;;;;;5123827;28;20250;-46
2021/06/22 02:03:25;;;;;;;12.10;5.73;;;12.90;99.90;;;;;;5119776;28;20829;-47
2021/06/22 02:05:52;;;;;;;9.60;5.27;;;12.90;99.90;;;;;;5109278;28;20196;-51
2021/06/22 02:08:21;;;;;;;10.20;5.00;;;12.90;99.90;;;;;;5118230;27;20196;-48
2021/06/22 02:10:48;;;;;;;12.90;4.83;;;12.90;99.90;;;;;;5122442;27;20189;-49
2021/06/22 02:13:46;;;;;;;12.20;5.20;;;12.90;99.90;;;;;;5122988;28;20697;-49
2021/06/22 02:16:19;;;;;;;10.20;5.00;;;12.90;99.90;;;;;;5118711;28;20244;-48
2021/06/22 02:18:47;;;;;;;11.17;5.10;;;12.90;99.90;;;;;;5122329;28;20201;-46
2021/06/22 02:21:17;;;;;;;9.17;4.80;;;12.90;99.90;;;;;;5104999;27;20200;-50
2021/06/22 02:23:45;;;;;;;8.80;4.73;;;12.90;99.90;;;;;;5123358;28;20195;-47
2021/06/22 02:26:14;;;;;;;10.83;4.53;;;12.90;99.90;;;;;;5120901;27;20284;-51
2021/06/22 02:28:41;;;;;;;7.90;4.90;;;13.00;99.90;;;;;;5123073;27;20192;-45
2021/06/22 02:31:11;;;;;;;11.27;5.13;;;13.00;99.90;;;;;;5120157;28;20200;-53
2021/06/22 02:33:38;;;;;;;11.03;5.23;;;13.00;99.90;;;;;;5123059;27;20211;-47
2021/06/22 02:36:07;;;;;;;7.77;4.57;;;13.00;99.90;;;;;;5103636;27;20295;-50
2021/06/22 02:38:40;;;;;;;15.53;4.50;;;13.00;99.90;;;;;;5126712;27;20197;-49
2021/06/22 02:41:09;;;;;;;13.33;5.13;;;12.90;99.90;;;;;;5124659;27;20654;-51
2021/06/22 02:43:38;;;;;;;12.97;5.10;;;13.00;99.90;;;;;;5126298;27;20200;-47
2021/06/22 02:46:11;;;;;;;8.83;5.17;;;13.00;99.90;;;;;;5125580;27;20196;-52
2021/06/22 02:48:39;;;;;;;13.43;5.57;;;13.00;99.90;;;;;;5126772;27;20268;-50
2021/06/22 02:51:09;;;;;;;16.87;4.87;;;13.00;99.90;;;;;;5116396;27;20220;-53
2021/06/22 02:53:44;;;;;;;10.47;5.13;;;13.00;99.90;;;;;;5120570;27;20681;-47
2021/06/22 02:56:11;;;;;;;10.40;5.63;;;13.00;99.90;;;;;;5123430;27;20241;-52
2021/06/22 02:58:40;;;;;;;14.97;8.10;;;13.00;99.90;;;;;;5126394;27;20529;-45
2021/06/22 03:01:12;;;;;;;8.40;5.40;;;13.00;99.90;;;;;;5123634;27;20621;-48
2021/06/22 03:03:39;;;;;;;9.43;4.77;;;13.00;99.90;;;;;;5126751;27;20216;-50
2021/06/22 03:06:12;;;;;;;7.67;5.13;;;13.00;99.90;;;;;;5123497;27;20196;-49
2021/06/22 03:08:52;;;;;;;6.80;4.90;;;13.00;99.90;;;;;;5099751;27;20295;-47
2021/06/22 03:11:20;;;;;;;9.07;4.93;;;13.00;99.90;;;;;;5122105;27;20208;-48
2021/06/22 03:13:49;;;;;;;8.60;4.73;;;13.00;99.90;;;;;;5127044;27;20177;-49
2021/06/22 03:16:33;;;;;;;8.20;4.77;;;13.00;99.90;;;;;;5123420;27;20191;-46
2021/06/22 03:19:00;;;;;;;12.27;4.93;;;13.00;99.90;;;;;;5121099;27;20217;-53
2021/06/22 03:21:29;;;;;;;11.77;4.47;;;13.00;99.90;;;;;;5123003;27;20195;-48
2021/06/22 03:23:57;;;;;;;12.20;5.40;;;13.00;99.90;;;;;;5106750;27;20206;-51
2021/06/22 03:26:24;;;;;;;10.83;4.67;;;13.00;99.90;;;;;;5122841;27;20378;-52
2021/06/22 03:28:50;;;;;;;12.27;4.83;;;13.00;99.90;;;;;;5126384;27;20192;-47
2021/06/22 03:31:47;;;;;;;12.03;4.73;;;13.00;99.90;;;;;;5126247;27;20225;-49
2021/06/22 03:34:14;;;;;;;11.10;4.93;;;13.00;99.90;;;;;;5123431;27;20678;-52
2021/06/22 03:36:41;;;;;;;9.67;4.83;;;13.00;99.90;;;;;;5126115;27;20738;-48
2021/06/22 03:39:08;;;;;;;6.60;4.20;;;13.00;99.90;;;;;;5102627;27;20204;-52
2021/06/22 03:41:36;;;;;;;7.67;4.63;;;13.10;99.90;;;;;;5125214;27;20268;-48
2021/06/22 03:44:05;;;;;;;8.07;5.03;;;13.10;99.90;;;;;;5116462;27;20245;-50
2021/06/22 03:46:38;;;;;;;12.37;5.43;;;13.10;99.90;;;;;;5121920;27;20244;-46
2021/06/22 03:49:06;;;;;;;10.20;5.20;;;13.10;99.90;;;;;;5122394;27;20605;-50
2021/06/22 03:51:34;;;;;;;8.63;4.27;;;13.10;99.90;;;;;;5122765;27;20184;-49
2021/06/22 03:54:01;;;;;;;7.13;4.60;;;13.10;99.90;;;;;;5123127;27;20217;-51
2021/06/22 03:56:30;;;;;;;11.70;5.10;;;13.10;99.90;;;;;;5106817;27;20197;-48
2021/06/22 03:59:00;;;;;;;8.50;4.97;;;13.10;99.90;;;;;;5125298;27;20200;-50
2021/06/22 04:01:27;;;;;;;8.20;4.90;;;13.20;99.90;;;;;;5117167;27;20192;-46
2021/06/22 04:03:54;;;;;;;9.30;4.57;;;13.10;99.90;;;;;;5126446;27;20189;-46
2021/06/22 04:06:42;;;;;;;7.17;4.77;;;13.10;99.90;;;;;;5115929;27;20209;-47
2021/06/22 04:09:09;;;;;;;9.17;4.77;;;13.10;99.90;;;;;;5119160;27;20188;-53
2021/06/22 04:11:39;;;;;;;8.73;4.33;;;13.10;99.90;;;;;;5103319;27;20221;-47
2021/06/22 04:14:06;;;;;;;10.53;4.93;;;13.20;99.90;;;;;;5121335;27;20218;-48
2021/06/22 04:16:39;;;;;;;13.83;4.47;;;13.10;99.90;;;;;;5124935;27;20197;-46
2021/06/22 04:19:08;;;;;;;9.60;4.47;;;13.10;99.90;;;;;;5122159;27;20200;-52
2021/06/22 04:21:37;;;;;;;10.50;4.73;;;13.20;99.90;;;;;;5113712;27;20949;-47
2021/06/22 04:24:07;;;;;;;6.30;4.13;;;13.20;99.90;;;;;;5102985;28;20650;-49
2021/06/22 04:26:36;;;;;;;15.37;4.60;;;13.20;99.90;;;;;;5094007;27;20219;-47
2021/06/22 04:29:03;;;;;;;12.63;4.77;;;13.20;99.90;;;;;;5122565;27;20371;-49
2021/06/22 04:31:30;;;;;;;11.07;4.03;;;13.20;99.90;;;;;;5122885;27;20193;-49
2021/06/22 04:33:57;;;;;;;11.17;4.67;;;13.20;99.90;;;;;;5125719;27;20542;-46
2021/06/22 04:36:24;;;;;;;7.40;4.10;;;13.20;99.90;;;;;;5121443;27;20199;-49
2021/06/22 04:38:50;;;;;;;9.90;4.73;;;13.30;99.90;;;;;;5105482;27;20307;-46
2021/06/22 04:41:22;;;;;;;10.73;4.67;;;13.30;99.90;;;;;;5095593;27;20194;-48
2021/06/22 04:43:48;;;;;;;13.10;4.80;;;13.20;99.90;;;;;;5106223;27;20270;-46
2021/06/22 04:46:15;;;;;;;9.83;4.63;;;13.20;99.90;;;;;;5100794;27;20856;-49
2021/06/22 04:48:42;;;;;;;11.27;4.43;;;13.20;99.90;;;;;;5131236;27;20195;-47
2021/06/22 04:51:09;;;;;;;11.67;4.87;;;13.20;99.90;;;;;;5114781;27;20201;-51
2021/06/22 04:53:35;;;;;;;10.00;4.43;;;13.10;99.90;;;;;;5116320;27;20217;-46
2021/06/22 04:56:02;;;;;;;9.77;4.30;;;13.10;99.90;;;;;;5115961;27;20206;-51
2021/06/22 04:58:31;;;;;;;10.47;5.13;;;13.10;99.90;;;;;;5104074;27;20262;-47
2021/06/22 05:01:02;;;;;;;14.80;4.40;;;13.10;99.90;;;;;;5121525;27;20271;-53
2021/06/22 05:03:28;;;;;;;11.07;3.93;;;13.10;99.90;;;;;;5108244;27;20777;-47
2021/06/22 05:05:55;;;;;;;10.87;4.90;;;13.10;99.90;;;;;;5117672;27;20277;-53
2021/06/22 05:08:21;;;;;;;8.77;4.13;;;13.10;99.90;;;;;;5108464;27;20197;-46
2021/06/22 05:10:48;;;;;;;10.03;4.17;;;13.10;99.90;;;;;;5124180;27;20195;-50
2021/06/22 05:13:15;;;;;;;6.17;4.40;;;13.10;99.90;;;;;;5120938;27;20287;-46
2021/06/22 05:15:43;;;;;;;12.03;4.60;;;13.20;99.90;;;;;;5107744;27;20211;-46
2021/06/22 05:18:09;;;;;;;6.67;4.30;;;13.10;99.90;;;;;;5099860;27;20250;-52
2021/06/22 05:20:36;;;;;;;10.63;5.37;;;13.10;99.90;;;;;;5121341;27;20205;-46
2021/06/22 05:23:03;;;;;;;9.73;4.23;;;13.10;99.90;;;;;;5101829;27;20217;-54
2021/06/22 05:25:30;;;;;;;6.80;3.90;;;13.10;99.90;;;;;;5113103;27;20940;-48
2021/06/22 05:27:56;;;;;;;12.07;4.03;;;13.10;99.90;;;;;;5123817;27;20204;-50
2021/06/22 05:30:23;;;;;;;12.07;3.70;;;13.10;99.90;;;;;;5103750;27;23279;-49
2021/06/22 05:32:51;;;;;;;4.87;3.27;;;13.20;99.90;;;;;;5118981;27;20561;-46
2021/06/22 05:35:18;;;;;;;10.57;3.97;;;13.20;99.90;;;;;;5114556;27;20866;-46
2021/06/22 05:37:45;;;;;;;5.93;3.33;;;13.20;99.90;;;;;;5113038;27;20698;-45
2021/06/22 05:40:12;;;;;;;12.57;3.70;;;13.20;99.90;;;;;;5095974;28;20197;-50
2021/06/22 05:42:39;;;;;;;8.63;3.90;;;13.30;99.90;;;;;;5123742;27;20204;-47
2021/06/22 05:45:07;;;;;;;7.40;4.10;;;13.30;99.90;;;;;;5108777;27;20221;-49
2021/06/22 05:47:34;;;;;;;12.60;3.43;;;13.30;99.90;;;;;;5121189;27;20283;-66
2021/06/22 05:50:02;;;;;;;19.07;4.77;;;13.40;99.90;;;;;;5116545;27;20559;-66
2021/06/22 05:52:29;;;;;;;10.27;3.40;;;13.50;99.90;;;;;;5113814;28;20204;-66
2021/06/22 05:54:55;;;;;;;6.30;3.80;;;13.50;99.90;;;;;;5102796;28;20653;-66
2021/06/22 05:57:22;;;;;;;10.07;3.53;;;13.60;99.90;;;;;;5105074;28;20237;-47
2021/06/22 05:59:49;;;;;;;9.13;3.73;;;13.60;99.90;;;;;;5116941;27;20552;-50
2021/06/22 06:02:15;;;;;;;5.07;3.30;;;13.60;99.90;;;;;;5104678;28;20212;-45
2021/06/22 06:04:43;;;;;;;7.17;3.23;;;13.60;99.90;;;;;;5124364;27;20680;-47
2021/06/22 06:07:11;;;;;;;13.03;3.90;;;13.60;99.90;;;;;;5104567;28;20194;-53
2021/06/22 06:09:38;;;;;;;9.97;3.80;;;13.60;99.90;;;;;;5102426;27;20205;-48
2021/06/22 06:12:05;;;;;;;7.23;3.40;;;13.60;99.90;;;;;;5096142;27;20718;-52
2021/06/22 06:14:32;;;;;;;6.33;3.53;;;13.70;99.90;;;;;;5126858;27;20684;-46
2021/06/22 06:16:58;;;;;;;9.20;4.07;;;13.70;99.90;;;;;;5117239;27;20631;-52
2021/06/22 06:19:25;;;;;;;9.37;4.10;;;13.70;99.90;;;;;;5119655;27;20953;-48
2021/06/22 06:21:52;;;;;;;4.73;3.23;;;13.70;99.90;;;;;;5113758;27;20303;-50
2021/06/22 06:24:20;;;;;;;7.63;3.07;;;13.80;99.90;;;;;;5096737;27;20323;-46
2021/06/22 06:26:55;;;;;;;10.47;3.70;;;13.80;99.90;;;;;;5108348;27;20209;-47
2021/06/22 06:29:28;;;;;;;16.77;4.03;;;13.80;99.90;;;;;;5110969;27;20188;-52
2021/06/22 06:31:55;;;;;;;10.87;3.23;;;13.90;99.90;;;;;;5115718;27;20228;-49
2021/06/22 06:34:22;;;;;;;12.27;3.57;;;14.00;99.90;;;;;;5116235;27;20212;-47
2021/06/22 06:36:48;;;;;;;6.00;3.43;;;14.00;99.90;;;;;;5121063;27;20193;-49
2021/06/22 06:39:15;;;;;;;6.60;3.27;;;14.00;99.90;;;;;;5113451;27;20951;-48
2021/06/22 06:41:43;;;;;;;11.33;3.67;;;14.10;99.90;;;;;;5096484;27;20225;-48
2021/06/22 06:44:10;;;;;;;9.83;2.80;;;14.00;99.90;;;;;;5105852;27;20197;-50
2021/06/22 06:46:36;;;;;;;8.97;3.30;;;14.00;99.90;;;;;;5113724;27;20188;-50
2021/06/22 06:49:03;;;;;;;7.50;3.00;;;14.20;99.90;;;;;;5109738;27;20373;-50
2021/06/22 06:51:30;;;;;;;6.30;2.57;;;14.20;99.90;;;;;;5117882;27;20198;-50
2021/06/22 06:53:57;;;;;;;6.40;2.80;;;14.30;99.90;;;;;;5116252;27;20652;-45
2021/06/22 06:56:24;;;;;;;12.17;3.13;;;14.40;99.90;;;;;;5102102;27;20215;-48
2021/06/22 06:58:52;;;;;;;8.07;2.93;;;14.50;99.90;;;;;;5108593;27;20203;-47
2021/06/22 07:01:18;;;;;;;8.27;2.67;;;14.60;99.90;;;;;;5121872;27;20196;-49
2021/06/22 07:03:46;;;;;;;9.63;2.93;;;14.70;99.90;;;;;;5103115;27;20204;-47
2021/06/22 07:06:13;;;;;;;9.33;3.50;;;14.70;99.90;;;;;;5111295;27;20277;-50
2021/06/22 07:08:39;;;;;;;9.47;2.80;;;14.80;99.90;;;;;;5103238;27;20577;-52
2021/06/22 07:11:07;;;;;;;8.83;2.47;;;14.90;99.90;;;;;;5107231;27;20570;-48
2021/06/22 07:13:33;;;;;;;8.07;3.10;;;15.00;99.90;;;;;;5111707;27;20227;-49
2021/06/22 07:16:01;;;;;;;5.03;2.50;;;15.20;99.90;;;;;;5113698;27;20208;-52
2021/06/22 07:18:31;;;;;;;4.20;2.47;;;15.30;99.90;;;;;;5112658;27;20185;-47
2021/06/22 07:20:58;;;;;;;8.03;2.57;;;15.30;99.90;;;;;;5106062;27;20648;-49
2021/06/22 07:23:24;;;;;;;10.60;2.80;;;15.30;99.90;;;;;;5104572;27;20979;-49
2021/06/22 07:25:51;;;;;;;6.93;2.60;;;15.50;99.90;;;;;;5129305;27;20206;-53
2021/06/22 07:28:18;;;;;;;6.23;2.50;;;15.40;99.90;;;;;;5111087;27;20235;-48
2021/06/22 07:30:45;;;;;;;5.17;3.03;;;15.50;99.90;;;;;;5115120;27;20196;-46
2021/06/22 07:33:13;;;;;;;7.00;2.83;;;15.50;99.90;;;;;;5120581;27;20299;-50
2021/06/22 07:35:40;;;;;;;6.47;2.73;;;15.60;99.90;;;;;;5110894;27;20682;-49
2021/06/22 07:38:07;;;;;;;5.97;3.00;;;15.60;99.90;;;;;;5121017;27;20215;-50
2021/06/22 07:40:33;;;;;;;6.27;2.60;;;15.60;99.90;;;;;;5115562;27;20200;-48
2021/06/22 07:43:00;;;;;;;6.77;2.87;;;15.60;99.90;;;;;;5108936;27;20217;-52
2021/06/22 07:45:27;;;;;;;7.90;2.70;;;15.50;99.90;;;;;;5114059;27;20192;-47
2021/06/22 07:47:55;;;;;;;7.13;2.60;;;15.50;99.90;;;;;;5115679;27;20206;-48
2021/06/22 07:50:24;;;;;;;3.80;2.60;;;15.50;99.90;;;;;;5121905;27;20199;-51
2021/06/22 07:52:51;;;;;;;5.47;2.50;;;15.50;99.90;;;;;;5109222;27;20221;-47
2021/06/22 07:55:17;;;;;;;7.10;2.20;;;15.50;99.90;;;;;;5112605;27;20232;-53
2021/06/22 07:57:45;;;;;;;8.33;2.40;;;15.50;99.90;;;;;;5114306;27;20617;-47
2021/06/22 08:03:13;;;;;;;9.53;2.70;;;15.40;99.90;;;;;;5096264;27;20229;-49
2021/06/22 08:05:43;;;;;;;9.97;2.80;;;15.40;99.90;;;;;;5114842;27;20295;-51
2021/06/22 08:08:12;;;;;;;6.57;2.70;;;15.50;99.90;;;;;;5102904;27;20200;-47
2021/06/22 08:10:40;;;;;;;3.27;2.70;;;15.60;99.90;;;;;;5109066;27;20257;-52
2021/06/22 08:13:07;;;;;;;6.00;2.67;;;15.80;99.90;;;;;;5109444;27;20221;-48
2021/06/22 08:15:34;;;;;;;6.53;2.77;;;15.90;99.90;;;;;;5105446;27;20201;-51
2021/06/22 08:18:00;;;;;;;4.83;2.50;;;15.90;99.90;;;;;;5101421;27;20197;-47
2021/06/22 08:20:27;;;;;;;7.27;2.37;;;16.00;99.90;;;;;;5121754;27;20305;-48
2021/06/22 08:22:55;;;;;;;5.67;2.50;;;16.00;99.90;;;;;;5100286;27;21148;-46
2021/06/22 08:25:24;;;;;;;7.50;2.87;;;16.00;99.90;;;;;;5112287;27;20712;-50
2021/06/22 08:27:51;;;;;;;6.43;2.50;;;16.10;99.90;;;;;;5112981;27;20197;-48
2021/06/22 08:30:19;;;;;;;6.83;2.97;;;16.20;99.90;;;;;;5116298;27;20209;-46
2021/06/22 08:32:46;;;;;;;5.23;3.20;;;16.30;99.90;;;;;;5106533;27;20751;-49
2021/06/22 08:35:13;;;;;;;6.60;2.60;;;16.40;99.90;;;;;;5122177;27;20235;-47
2021/06/22 08:37:40;;;;;;;7.43;2.60;;;16.50;99.90;;;;;;5123092;27;20203;-48
2021/06/22 08:40:10;;;;;;;5.93;3.17;;;16.50;99.90;;;;;;5101794;27;20247;-44
2021/06/22 08:42:39;;;;;;;6.90;2.77;;;16.30;99.90;;;;;;5111480;27;20220;-50
2021/06/22 08:45:08;;;;;;;9.80;2.87;;;16.30;99.90;;;;;;5113820;27;20905;-45
2021/06/22 08:47:35;;;;;;;4.43;2.50;;;16.20;99.90;;;;;;5117404;27;20212;-47
2021/06/22 08:50:02;;;;;;;6.70;2.60;;;16.20;99.90;;;;;;5113835;27;20881;-48
2021/06/22 08:52:31;;;;;;;5.13;2.70;;;16.20;99.90;;;;;;5124692;27;20214;-47
2021/06/22 08:54:59;;;;;;;9.87;2.60;;;16.50;99.90;;;;;;5095386;27;20653;-45
2021/06/22 08:57:27;;;;;;;7.57;2.30;;;16.70;99.90;;;;;;5105879;27;20557;-45
2021/06/22 08:59:54;;;;;;;7.10;2.67;;;16.90;99.90;;;;;;5108703;27;20210;-45
2021/06/22 09:02:25;;;;;;;4.37;2.83;;;17.00;99.90;;;;;;5114117;27;20218;-45
2021/06/22 09:04:52;;;;;;;7.97;2.47;;;17.00;99.90;;;;;;5101997;27;20185;-46
2021/06/22 09:07:43;;;;;;;12.10;2.53;;;17.10;99.90;;;;;;5122038;27;20193;-45
2021/06/22 09:10:19;;;;;;;8.33;2.93;;;17.20;99.90;;;;;;5092788;27;20197;-49
2021/06/22 09:12:47;;;;;;;4.93;2.27;;;17.10;99.90;;;;;;5108233;27;20722;-46
2021/06/22 09:15:20;;;;;;;5.87;2.70;;;16.90;99.90;;;;;;5108466;27;20750;-47
2021/06/22 09:17:47;;;;;;;4.13;2.00;;;16.80;99.90;;;;;;5103372;27;20192;-49
2021/06/22 09:20:15;;;;;;;6.03;2.63;;;16.70;99.90;;;;;;5114553;27;20197;-45
2021/06/22 09:22:41;;;;;;;7.83;2.53;;;16.70;99.90;;;;;;5121407;27;20620;-51
2021/06/22 09:25:12;;;;;;;6.47;3.00;;;16.70;99.90;;;;;;5113877;27;20195;-45
2021/06/22 09:27:51;;;;;;;7.10;2.40;;;16.80;99.90;;;;;;5102295;27;20228;-45
2021/06/22 09:30:40;;;;;;;6.63;2.60;;;16.90;99.90;;;;;;5117141;27;20773;-45
2021/06/22 09:33:22;;;;;;;7.50;2.40;;;17.10;99.90;;;;;;5100137;27;20233;-46
2021/06/22 09:35:56;;;;;;;5.93;2.70;;;17.20;99.90;;;;;;5094872;28;20254;-46
2021/06/22 09:38:22;;;;;;;7.20;2.63;;;17.10;99.90;;;;;;5120067;27;20196;-49
2021/06/22 09:41:04;;;;;;;3.37;2.17;;;17.10;99.90;;;;;;5122347;27;20180;-46
2021/06/22 09:43:37;;;;;;;6.20;2.43;;;17.20;99.90;;;;;;5099034;27;20216;-45
2021/06/22 09:46:06;;;;;;;5.03;2.37;;;17.20;99.90;;;;;;5110559;27;20205;-45
2021/06/22 09:48:41;;;;;;;5.70;2.40;;;17.20;99.90;;;;;;5101744;28;20205;-45
2021/06/22 09:51:08;;;;;;;7.73;2.30;;;17.30;99.90;;;;;;5109671;27;20201;-45
2021/06/22 09:53:35;;;;;;;3.77;2.13;;;17.30;99.90;;;;;;5118373;28;20204;-45
2021/06/22 09:56:03;;;;;;;7.77;2.40;;;17.40;99.90;;;;;;5124151;28;20189;-48
2021/06/22 09:58:40;;;;;;;5.53;2.37;;;17.50;99.90;;;;;;5096328;28;20855;-51
2021/06/22 10:01:28;;;;;;;6.20;2.33;;;17.60;99.90;;;;;;5115081;28;20204;-47
2021/06/22 10:03:55;;;;;;;6.77;2.53;;;17.70;99.90;;;;;;5115513;28;20197;-45
2021/06/22 10:06:22;;;;;;;6.57;3.10;;;17.70;99.90;;;;;;5116071;27;20197;-49
2021/06/22 10:08:54;;;;;;;6.70;2.47;;;17.80;99.90;;;;;;5118104;27;20197;-51
2021/06/22 10:11:33;;;;;;;9.23;2.20;;;17.90;99.90;;;;;;5111743;28;20189;-48
2021/06/22 10:14:03;;;;;;;5.13;2.90;;;18.00;99.90;;;;;;5112875;28;20242;-44
2021/06/22 10:16:32;;;;;;;5.80;2.60;;;18.10;99.90;;;;;;5107241;28;20197;-50
2021/06/22 10:19:02;;;;;;;4.47;1.90;;;18.20;99.90;;;;;;5120409;28;20296;-46
2021/06/22 10:21:29;;;;;;;4.93;2.10;;;18.20;99.90;;;;;;5101870;28;20204;-47
2021/06/22 10:23:57;;;;;;;6.83;2.37;;;17.90;99.90;;;;;;5119690;28;20700;-50
2021/06/22 10:26:27;;;;;;;8.50;2.20;;;17.70;99.90;;;;;;5117349;27;20565;-52
2021/06/22 10:28:54;;;;;;;7.10;3.03;;;17.60;99.90;;;;;;5096712;28;20209;-47
2021/06/22 10:31:22;;;;;;;6.90;2.53;;;17.60;99.90;;;;;;5112811;28;20205;-45
2021/06/22 10:33:49;;;;;;;6.47;2.23;;;17.50;99.90;;;;;;5104817;28;20208;-48
2021/06/22 10:36:25;;;;;;;6.07;2.47;;;17.40;99.90;;;;;;5114190;28;20940;-45
2021/06/22 10:38:57;;;;;;;5.60;2.43;;;17.40;99.90;;;;;;5112793;28;20211;-48
2021/06/22 10:41:25;;;;;;;4.27;2.73;;;17.50;99.90;;;;;;5105643;28;20702;-49
2021/06/22 10:43:52;;;;;;;5.57;2.30;;;17.60;99.90;;;;;;5099476;27;20224;-44
2021/06/22 10:46:20;;;;;;;5.60;2.40;;;17.60;99.90;;;;;;5107444;28;20650;-48
2021/06/22 10:48:52;;;;;;;6.93;2.70;;;17.60;99.90;;;;;;5110001;28;20199;-46
2021/06/22 10:51:29;;;;;;;6.77;2.73;;;17.50;99.90;;;;;;5108291;27;20206;-49
2021/06/22 10:53:56;;;;;;;11.00;2.50;;;17.40;99.90;;;;;;5122612;27;20558;-44
2021/06/22 10:56:24;;;;;;;6.63;2.40;;;17.40;99.90;;;;;;5113522;27;20189;-52
2021/06/22 10:59:22;;;;;;;5.80;2.23;;;17.50;99.90;;;;;;5090188;27;20204;-46
2021/06/22 11:02:05;;;;;;;5.47;2.37;;;17.60;99.90;;;;;;5104599;27;20250;-49
2021/06/22 11:04:33;;;;;;;7.83;2.47;;;17.70;99.90;;;;;;5103381;27;20634;-49
2021/06/22 11:07:24;;;;;;;10.17;2.20;;;17.80;99.90;;;;;;5114707;27;20209;-49
2021/06/22 11:10:13;;;;;;;8.57;2.40;;;18.00;99.90;;;;;;5119079;27;20193;-45
2021/06/22 11:12:53;;;;;;;6.53;2.77;;;18.00;99.90;;;;;;5110869;27;20406;-47
2021/06/22 11:15:21;;;;;;;6.67;2.30;;;18.00;99.90;;;;;;5104616;27;20220;-47
2021/06/22 11:17:58;;;;;;;7.93;2.90;;;17.90;99.90;;;;;;5104662;27;20197;-48
2021/06/22 11:20:30;;;;;;;10.00;2.63;;;17.90;99.90;;;;;;5113097;27;20212;-52
2021/06/22 11:23:08;;;;;;;6.17;2.10;;;17.90;99.90;;;;;;5121958;27;20250;-46
2021/06/22 11:25:53;;;;;;;6.47;1.87;;;17.80;99.90;;;;;;5113598;27;20245;-45
2021/06/22 11:28:21;;;;;;;8.37;2.47;;;17.80;99.90;;;;;;5113144;27;20185;-49
2021/06/22 11:30:54;;;;;;;4.17;1.83;;;18.00;99.90;;;;;;5103874;27;20903;-44
2021/06/22 11:33:38;;;;;;;8.13;2.10;;;18.20;99.90;;;;;;5106645;27;20732;-48
2021/06/22 11:36:29;;;;;;;5.43;2.37;;;18.30;99.90;;;;;;5117769;27;20215;-44
2021/06/22 11:39:18;;;;;;;5.23;2.07;;;18.50;99.90;;;;;;5121735;27;20287;-45
2021/06/22 11:42:19;;;;;;;6.30;1.80;;;18.50;99.90;;;;;;5115382;27;20201;-44
2021/06/22 11:44:50;;;;;;;5.30;1.77;;;18.50;99.90;;;;;;5107971;27;21281;-46
2021/06/22 11:47:54;;;;;;;7.63;2.10;;;18.40;99.90;;;;;;5117098;27;20546;-49
2021/06/22 11:50:34;;;;;;;5.97;2.07;;;18.40;99.90;;;;;;5104474;27;20208;-50
2021/06/22 11:53:09;;;;;;;4.47;1.40;;;18.60;99.90;;;;;;5113223;27;20227;-45
2021/06/22 11:55:44;;;;;;;5.90;1.90;;;18.80;99.90;;;;;;5108898;27;20212;-45
2021/06/22 11:58:17;;;;;;;5.33;1.57;;;18.80;99.90;;;;;;5103949;28;20842;-46
2021/06/22 12:00:44;;;;;;;6.70;1.80;;;18.70;99.90;;;;;;5097209;27;20189;-44
2021/06/22 12:03:10;;;;;;;4.20;1.60;;;18.80;99.90;;;;;;5113397;27;20221;-47
2021/06/22 12:05:38;;;;;;;6.93;1.63;;;18.80;99.90;;;;;;5105948;27;20887;-47
2021/06/22 12:08:10;;;;;;;6.67;1.80;;;18.80;99.90;;;;;;5107627;27;20209;-45
2021/06/22 12:10:46;;;;;;;6.40;1.40;;;18.90;99.90;;;;;;5125786;27;20258;-47
2021/06/22 12:13:14;;;;;;;6.27;1.67;;;19.00;99.60;;;;;;5121021;27;20298;-46
2021/06/22 12:15:43;;;;;;;2.43;1.40;;;19.10;99.20;;;;;;5116386;27;20220;-47
2021/06/22 12:18:10;;;;;;;7.93;1.70;;;19.40;99.30;;;;;;5128850;27;20198;-45
2021/06/22 12:20:39;;;;;;;5.87;1.73;;;19.50;98.90;;;;;;5121928;27;20189;-47
2021/06/22 12:23:10;;;;;;;5.03;2.00;;;19.40;98.60;;;;;;5109939;27;20332;-50
2021/06/22 12:25:39;;;;;;;5.43;1.50;;;19.10;98.60;;;;;;5114527;27;20187;-45
2021/06/22 12:28:07;;;;;;;3.80;1.77;;;19.00;99.00;;;;;;5123490;27;20197;-48
2021/06/22 12:30:36;;;;;;;6.67;1.37;;;19.10;98.80;;;;;;5108460;27;20216;-48
2021/06/22 12:33:14;;;;;;;7.03;1.27;;;19.30;99.00;;;;;;5130466;27;20219;-47
2021/06/22 12:35:43;;;;;;;5.03;1.60;;;19.20;97.30;;;;;;5101502;27;20260;-44
2021/06/22 12:38:12;;;;;;;6.33;1.83;;;19.00;98.70;;;;;;5128576;27;20657;-43
2021/06/22 12:40:45;;;;;;;5.97;2.03;;;19.20;98.60;;;;;;5097284;27;20207;-47
2021/06/22 12:43:13;;;;;;;7.50;1.60;;;19.40;98.00;;;;;;5107922;27;20701;-45
2021/06/22 12:45:40;;;;;;;11.03;1.50;;;19.40;97.60;;;;;;5114461;27;20188;-47
2021/06/22 12:48:08;;;;;;;5.63;1.50;;;19.50;97.20;;;;;;5113032;27;21040;-47
2021/06/22 12:50:37;;;;;;;8.07;1.47;;;19.50;97.20;;;;;;5103488;27;20471;-46
2021/06/22 12:53:04;;;;;;;5.87;2.07;;;19.70;96.90;;;;;;5118230;27;20619;-48
2021/06/22 12:55:38;;;;;;;5.47;1.40;;;19.60;96.50;;;;;;5107790;27;20722;-48
2021/06/22 12:58:07;;;;;;;5.13;1.23;;;19.50;95.60;;;;;;5113138;27;20254;-48
2021/06/22 13:00:38;;;;;;;10.50;1.73;;;19.60;95.70;;;;;;5114436;27;20189;-51